Time;durP1;ratioP1;P1;durP2;ratioP2;P2;SDS_P1;SDS_P2;PMS_P1;PMS_P2;Temp;Humidity;BMP_temperature;BMP_pressure;BME280_temperature;BME280_humidity;BME280_pressure;Samples;Min_cycle;Max_cycle;Signal;HPM_P1;HPM_P2
2022/08/25 00:01:19;;;;;;;0.37;0.37;;;17.30;99.90;;;;;;5012624;28;20226;-75
2022/08/25 00:03:45;;;;;;;0.40;0.40;;;17.30;99.90;;;;;;5011386;28;20212;-74
2022/08/25 00:06:11;;;;;;;0.40;0.40;;;17.40;99.90;;;;;;5014045;28;20380;-75
2022/08/25 00:08:37;;;;;;;0.40;0.40;;;17.40;99.90;;;;;;5016584;28;20181;-75
2022/08/25 00:11:05;;;;;;;0.40;0.40;;;17.40;99.90;;;;;;5015795;28;20653;-75
2022/08/25 00:13:31;;;;;;;0.30;0.30;;;17.30;99.90;;;;;;5014522;28;20204;-75
2022/08/25 00:15:56;;;;;;;0.37;0.37;;;17.30;99.90;;;;;;5017210;28;20191;-75
2022/08/25 00:18:22;;;;;;;0.40;0.40;;;17.20;99.90;;;;;;5014651;28;20181;-75
2022/08/25 00:20:48;;;;;;;0.30;0.30;;;17.30;76.50;;;;;;5014689;28;20673;-75
2022/08/25 00:23:13;;;;;;;0.50;0.50;;;17.20;70.30;;;;;;5013899;28;20242;-75
2022/08/25 00:25:39;;;;;;;0.50;0.50;;;17.20;69.00;;;;;;5015524;28;20176;-75
2022/08/25 00:28:05;;;;;;;0.40;0.40;;;17.10;68.40;;;;;;5014510;28;20189;-75
2022/08/25 00:30:30;;;;;;;0.40;0.40;;;17.00;7.50;;;;;;5012388;28;20188;-75
2022/08/25 00:32:56;;;;;;;0.40;0.40;;;17.00;1.00;;;;;;5010748;28;20291;-75
2022/08/25 00:35:23;;;;;;;0.30;0.30;;;16.90;1.00;;;;;;5012503;28;20184;-76
2022/08/25 00:37:48;;;;;;;0.40;0.40;;;16.80;5.30;;;;;;5012999;28;20185;-76
2022/08/25 00:40:14;;;;;;;0.50;0.50;;;16.80;19.60;;;;;;5012016;28;20577;-75
2022/08/25 00:42:40;;;;;;;0.50;0.50;;;16.80;15.30;;;;;;5011324;28;20614;-75
2022/08/25 00:45:07;;;;;;;0.40;0.40;;;16.80;26.40;;;;;;5016951;28;20180;-75
2022/08/25 00:47:33;;;;;;;0.40;0.40;;;16.70;54.20;;;;;;5016278;28;20187;-75
2022/08/25 00:50:01;;;;;;;0.33;0.33;;;16.70;77.10;;;;;;5013271;28;20184;-75
2022/08/25 00:52:36;;;;;;;0.40;0.40;;;16.60;99.90;;;;;;5011262;28;20173;-75
2022/08/25 00:55:14;;;;;;;0.50;0.50;;;16.60;99.90;;;;;;5008011;28;20190;-75
2022/08/25 00:57:53;;;;;;;0.40;0.40;;;16.60;99.90;;;;;;4996410;28;20183;-76
2022/08/25 01:00:29;;;;;;;0.40;0.40;;;16.50;99.90;;;;;;5011549;28;20258;-75
2022/08/25 01:02:56;;;;;;;0.40;0.40;;;16.30;99.90;;;;;;5010281;28;20715;-76
2022/08/25 01:05:23;;;;;;;0.40;0.40;;;16.60;99.90;;;;;;5012289;28;20618;-76
2022/08/25 01:07:49;;;;;;;0.30;0.30;;;16.40;99.90;;;;;;5012192;28;20621;-76
2022/08/25 01:10:16;;;;;;;0.33;0.33;;;16.50;99.90;;;;;;5010838;28;20181;-75
2022/08/25 01:12:42;;;;;;;0.40;0.40;;;16.60;99.90;;;;;;5009562;28;20236;-75
2022/08/25 01:15:10;;;;;;;0.40;0.40;;;16.50;99.90;;;;;;5011640;28;20231;-75
2022/08/25 01:17:51;;;;;;;0.40;0.40;;;16.40;99.90;;;;;;5011655;28;20256;-76
2022/08/25 01:20:20;;;;;;;0.40;0.40;;;16.50;99.90;;;;;;5011239;28;20232;-75
2022/08/25 01:22:46;;;;;;;0.40;0.40;;;16.50;99.90;;;;;;5010167;28;20201;-75
2022/08/25 01:25:20;;;;;;;0.40;0.40;;;16.50;99.90;;;;;;5011900;28;20211;-75
2022/08/25 01:27:46;;;;;;;0.40;0.40;;;16.50;99.90;;;;;;5011621;28;20189;-76
2022/08/25 01:30:11;;;;;;;0.50;0.50;;;16.50;99.90;;;;;;5010847;28;20180;-75
2022/08/25 01:32:37;;;;;;;0.60;0.60;;;16.50;99.90;;;;;;5009765;28;20203;-75
2022/08/25 01:35:03;;;;;;;0.40;0.40;;;16.50;99.90;;;;;;5011647;28;20188;-76
2022/08/25 01:37:28;;;;;;;0.30;0.30;;;16.50;99.90;;;;;;5011773;28;20185;-75
2022/08/25 01:39:54;;;;;;;0.40;0.40;;;16.30;99.90;;;;;;5010671;28;20219;-75
2022/08/25 01:42:41;;;;;;;0.40;0.40;;;16.40;99.90;;;;;;5010762;28;20176;-76
2022/08/25 01:45:07;;;;;;;0.40;0.40;;;16.30;99.90;;;;;;5004637;28;20235;-76
2022/08/25 01:47:33;;;;;;;0.40;0.40;;;16.10;99.90;;;;;;5011602;28;20189;-76
2022/08/25 01:49:59;;;;;;;0.40;0.40;;;16.00;99.90;;;;;;5010585;28;20189;-75
2022/08/25 01:52:32;;;;;;;0.47;0.47;;;16.10;99.90;;;;;;5010102;28;20180;-75
2022/08/25 01:54:58;;;;;;;0.50;0.50;;;16.10;99.90;;;;;;5010636;28;20176;-75
2022/08/25 01:57:24;;;;;;;0.30;0.30;;;16.10;99.90;;;;;;5011557;28;20183;-75
2022/08/25 01:59:49;;;;;;;0.30;0.30;;;16.10;99.90;;;;;;5010530;28;20326;-75
2022/08/25 02:02:15;;;;;;;0.43;0.43;;;16.00;99.90;;;;;;5011036;28;20290;-75
2022/08/25 02:04:40;;;;;;;0.40;0.40;;;16.00;99.90;;;;;;5009582;28;20311;-75
2022/08/25 02:07:07;;;;;;;0.50;0.50;;;16.00;99.90;;;;;;5011249;28;20738;-75
2022/08/25 02:09:34;;;;;;;0.40;0.40;;;15.90;99.90;;;;;;5010589;28;20181;-75
2022/08/25 02:12:00;;;;;;;0.50;0.50;;;16.00;99.90;;;;;;5011189;28;20187;-76
2022/08/25 02:14:27;;;;;;;0.50;0.50;;;16.00;99.90;;;;;;5009196;28;20200;-75
2022/08/25 02:16:53;;;;;;;0.30;0.30;;;15.90;99.90;;;;;;5011313;28;20187;-76
2022/08/25 02:19:22;;;;;;;0.40;0.40;;;15.90;99.90;;;;;;5010809;28;20235;-76
2022/08/25 02:21:47;;;;;;;0.40;0.40;;;15.80;99.90;;;;;;5010813;28;20693;-75
2022/08/25 02:24:13;;;;;;;0.30;0.30;;;15.90;99.90;;;;;;5009075;28;20223;-75
2022/08/25 02:26:40;;;;;;;0.43;0.43;;;15.80;99.90;;;;;;5011210;28;20180;-76
2022/08/25 02:29:06;;;;;;;0.50;0.50;;;15.80;99.90;;;;;;5010542;28;20316;-75
2022/08/25 02:31:32;;;;;;;0.43;0.43;;;15.90;99.90;;;;;;5010846;28;20219;-75
2022/08/25 02:33:58;;;;;;;0.50;0.50;;;15.80;99.90;;;;;;5008495;28;20201;-75
2022/08/25 02:36:24;;;;;;;0.50;0.50;;;15.80;99.90;;;;;;5010700;28;20222;-75
2022/08/25 02:38:50;;;;;;;0.40;0.40;;;15.80;99.90;;;;;;5010630;28;20184;-76
2022/08/25 02:41:18;;;;;;;0.40;0.40;;;15.80;99.90;;;;;;5013779;28;20231;-76
2022/08/25 02:43:47;;;;;;;0.30;0.30;;;15.70;99.90;;;;;;5012482;28;20632;-75
2022/08/25 02:46:13;;;;;;;0.50;0.50;;;15.70;99.90;;;;;;5014375;28;20184;-76
2022/08/25 02:48:40;;;;;;;0.40;0.40;;;15.50;99.90;;;;;;5014332;28;20185;-76
2022/08/25 02:51:07;;;;;;;0.30;0.30;;;15.50;99.90;;;;;;5014121;28;20238;-76
2022/08/25 02:53:35;;;;;;;0.50;0.50;;;15.50;99.90;;;;;;5012668;28;20278;-75
2022/08/25 02:56:00;;;;;;;0.40;0.40;;;15.60;99.90;;;;;;5014393;28;20789;-76
2022/08/25 02:58:26;;;;;;;0.37;0.37;;;15.70;99.90;;;;;;4996571;28;20290;-75
2022/08/25 03:00:52;;;;;;;0.40;0.40;;;15.60;99.90;;;;;;5013850;28;20299;-75
2022/08/25 03:03:19;;;;;;;0.40;0.40;;;15.60;99.90;;;;;;5012391;28;20704;-75
2022/08/25 03:05:45;;;;;;;0.50;0.50;;;15.40;99.90;;;;;;5014061;28;20227;-76
2022/08/25 03:08:12;;;;;;;0.40;0.40;;;15.30;99.90;;;;;;5014481;28;20184;-76
2022/08/25 03:10:38;;;;;;;0.43;0.43;;;15.40;99.90;;;;;;4997609;28;20185;-76
2022/08/25 03:13:03;;;;;;;0.40;0.40;;;15.60;99.90;;;;;;5012157;28;20273;-75
2022/08/25 03:15:29;;;;;;;0.40;0.40;;;15.50;99.90;;;;;;5013669;28;20631;-75
2022/08/25 03:17:55;;;;;;;0.40;0.40;;;15.30;99.90;;;;;;5013713;28;20582;-75
2022/08/25 03:20:22;;;;;;;0.50;0.50;;;15.20;99.90;;;;;;5013191;28;20753;-75
2022/08/25 03:22:48;;;;;;;0.43;0.43;;;15.30;99.90;;;;;;5011791;28;20677;-75
2022/08/25 03:27:58;;;;;;;0.50;0.50;;;15.20;99.90;;;;;;5013710;28;20227;-76
2022/08/25 03:30:25;;;;;;;0.50;0.50;;;15.30;99.90;;;;;;5013162;28;20197;-76
2022/08/25 03:32:50;;;;;;;0.40;0.40;;;15.30;99.90;;;;;;5011622;28;20657;-76
2022/08/25 03:35:16;;;;;;;0.40;0.40;;;15.30;99.90;;;;;;5013583;28;20179;-75
2022/08/25 03:37:42;;;;;;;0.50;0.50;;;15.30;99.90;;;;;;5013961;28;20601;-75
2022/08/25 03:40:10;;;;;;;0.40;0.40;;;15.20;99.90;;;;;;5013232;28;20728;-76
2022/08/25 03:42:40;;;;;;;0.60;0.60;;;15.20;99.90;;;;;;5011469;28;20200;-76
2022/08/25 03:45:06;;;;;;;0.60;0.60;;;15.20;99.90;;;;;;5013325;28;20184;-76
2022/08/25 03:47:33;;;;;;;0.50;0.50;;;15.10;99.90;;;;;;5013416;28;20172;-76
2022/08/25 03:49:58;;;;;;;0.43;0.43;;;15.20;99.90;;;;;;5012772;28;20260;-76
2022/08/25 03:52:24;;;;;;;0.40;0.40;;;15.30;99.90;;;;;;5011454;28;20275;-76
2022/08/25 03:54:50;;;;;;;0.40;0.40;;;15.30;99.90;;;;;;5012592;28;20211;-76
2022/08/25 03:57:16;;;;;;;0.40;0.40;;;15.40;99.90;;;;;;5013366;28;20173;-76
2022/08/25 03:59:41;;;;;;;0.40;0.40;;;15.40;99.90;;;;;;5013197;28;20692;-75
2022/08/25 04:02:07;;;;;;;0.50;0.50;;;15.40;99.90;;;;;;5010815;28;20188;-75
2022/08/25 04:04:33;;;;;;;0.50;0.50;;;15.40;99.90;;;;;;5077233;22;20214;-80
2022/08/25 04:06:59;;;;;;;0.40;0.40;;;15.40;99.90;;;;;;5057321;28;20187;-78
2022/08/25 04:09:25;;;;;;;0.30;0.30;;;15.30;99.90;;;;;;5055536;28;20237;-80
2022/08/25 04:11:51;;;;;;;0.50;0.50;;;15.20;99.90;;;;;;5056833;28;20226;-80
2022/08/25 04:14:17;;;;;;;0.50;0.50;;;15.10;99.90;;;;;;5071847;28;20244;-80
2022/08/25 04:16:43;;;;;;;0.50;0.50;;;15.10;99.90;;;;;;5075798;28;20201;-80
2022/08/25 04:19:09;;;;;;;0.40;0.40;;;15.00;99.90;;;;;;5074894;28;20175;-79
2022/08/25 04:21:37;;;;;;;0.40;0.40;;;14.90;99.90;;;;;;5075157;28;20268;-78
2022/08/25 04:24:04;;;;;;;0.40;0.40;;;14.80;99.90;;;;;;5072847;28;20203;-79
2022/08/25 04:26:32;;;;;;;0.40;0.40;;;14.80;99.90;;;;;;5075547;28;20553;-78
2022/08/25 04:28:59;;;;;;;0.40;0.40;;;14.90;99.90;;;;;;5075002;28;20179;-78
2022/08/25 04:31:25;;;;;;;0.43;0.43;;;14.90;99.90;;;;;;5075349;28;20240;-77
2022/08/25 04:33:51;;;;;;;0.40;0.40;;;15.00;99.90;;;;;;5073974;28;20213;-78
2022/08/25 04:36:18;;;;;;;0.40;0.40;;;15.10;99.90;;;;;;5074677;28;20544;-78
2022/08/25 04:38:45;;;;;;;0.50;0.50;;;15.10;99.90;;;;;;5075677;28;20216;-78
2022/08/25 04:41:13;;;;;;;0.60;0.60;;;15.10;99.90;;;;;;5074744;28;20309;-78
2022/08/25 04:43:40;;;;;;;0.40;0.40;;;15.10;99.90;;;;;;5072330;28;20250;-77
2022/08/25 04:46:07;;;;;;;0.40;0.40;;;15.10;99.90;;;;;;5076274;28;20190;-78
2022/08/25 04:48:33;;;;;;;0.40;0.40;;;15.20;99.90;;;;;;5074075;28;20733;-77
2022/08/25 04:51:03;;;;;;;0.50;0.50;;;15.20;99.90;;;;;;5073220;28;20250;-77
2022/08/25 04:53:29;;;;;;;0.40;0.40;;;15.10;99.90;;;;;;5071372;28;20646;-77
2022/08/25 04:55:54;;;;;;;0.40;0.40;;;15.10;99.90;;;;;;5072437;28;20178;-78
2022/08/25 04:58:20;;;;;;;0.40;0.40;;;15.20;99.90;;;;;;5073766;28;20178;-78
2022/08/25 05:00:45;;;;;;;0.40;0.40;;;15.30;99.90;;;;;;5069588;28;20221;-76
2022/08/25 05:03:11;;;;;;;0.50;0.50;;;15.30;99.90;;;;;;5065288;28;20675;-77
2022/08/25 05:05:37;;;;;;;0.50;0.50;;;15.30;99.90;;;;;;5068869;28;20623;-77
2022/08/25 05:08:04;;;;;;;0.40;0.40;;;15.20;99.90;;;;;;5070198;28;20174;-76
2022/08/25 05:10:30;;;;;;;0.50;0.50;;;15.30;99.90;;;;;;5071145;28;20202;-76
2022/08/25 05:12:56;;;;;;;0.40;0.40;;;15.30;99.90;;;;;;5072192;28;20267;-77
2022/08/25 05:18:05;;;;;;;0.40;0.40;;;15.30;99.90;;;;;;5071669;28;20222;-76
2022/08/25 05:20:31;;;;;;;0.50;0.50;;;15.40;99.90;;;;;;5070878;28;20210;-76
2022/08/25 05:22:57;;;;;;;0.30;0.30;;;15.40;99.90;;;;;;5070926;28;20198;-76
2022/08/25 05:25:23;;;;;;;0.50;0.50;;;15.50;99.90;;;;;;5063173;28;20183;-76
2022/08/25 05:27:49;;;;;;;0.50;0.50;;;15.80;99.90;;;;;;5056884;28;20175;-76
2022/08/25 05:30:14;;;;;;;0.40;0.40;;;15.80;99.90;;;;;;5064774;28;20232;-76
2022/08/25 05:32:40;;;;;;;0.60;0.60;;;15.90;99.90;;;;;;5068038;28;20206;-77
2022/08/25 05:35:06;;;;;;;0.40;0.40;;;15.90;99.90;;;;;;5062034;28;20178;-77
2022/08/25 05:37:32;;;;;;;0.40;0.40;;;16.40;99.90;;;;;;5070120;28;20178;-77
2022/08/25 05:39:58;;;;;;;0.50;0.50;;;16.30;99.90;;;;;;5070432;28;20586;-77
2022/08/25 05:42:24;;;;;;;0.40;0.40;;;16.60;99.90;;;;;;5070936;28;20186;-76
2022/08/25 05:44:49;;;;;;;0.40;0.40;;;16.80;99.90;;;;;;5071083;28;20270;-77
2022/08/25 05:47:15;;;;;;;0.60;0.60;;;16.70;99.90;;;;;;5071228;28;20265;-77
2022/08/25 05:49:41;;;;;;;0.40;0.40;;;16.80;99.90;;;;;;5070274;28;20178;-77
2022/08/25 05:52:06;;;;;;;0.50;0.50;;;16.90;99.90;;;;;;5070857;28;20179;-77
2022/08/25 05:54:32;;;;;;;0.50;0.50;;;17.20;99.90;;;;;;5071010;28;20217;-77
2022/08/25 05:56:58;;;;;;;0.40;0.40;;;17.50;98.50;;;;;;5069282;28;20186;-77
2022/08/25 05:59:23;;;;;;;0.30;0.30;;;17.30;99.90;;;;;;5070432;28;20170;-77
2022/08/25 06:04:33;;;;;;;0.37;0.37;;;17.50;99.90;;;;;;5070860;28;20266;-78
2022/08/25 06:06:59;;;;;;;0.50;0.50;;;17.70;99.90;;;;;;5070253;28;20261;-77
2022/08/25 06:09:25;;;;;;;0.50;0.50;;;17.90;91.50;;;;;;5069275;28;20182;-77
2022/08/25 06:11:51;;;;;;;0.50;0.50;;;18.00;43.30;;;;;;5070753;28;20186;-77
2022/08/25 06:14:16;;;;;;;0.37;0.37;;;18.00;27.40;;;;;;5070797;28;20570;-77
2022/08/25 06:16:42;;;;;;;0.40;0.40;;;18.10;43.10;;;;;;5075103;28;20643;-77
2022/08/25 06:19:09;;;;;;;0.40;0.40;;;18.50;1.00;;;;;;5074284;28;20555;-77
2022/08/25 06:21:37;;;;;;;0.40;0.40;;;18.50;10.80;;;;;;5074589;28;20795;-78
2022/08/25 06:24:04;;;;;;;0.40;0.40;;;18.50;1.00;;;;;;5074635;28;20545;-77
2022/08/25 06:26:29;;;;;;;0.40;0.40;;;18.50;6.00;;;;;;5074683;28;20175;-77
2022/08/25 06:28:55;;;;;;;0.50;0.50;;;18.40;1.00;;;;;;5074220;28;20697;-77
2022/08/25 06:31:21;;;;;;;0.40;0.40;;;18.50;1.00;;;;;;5074633;28;20269;-77
2022/08/25 06:33:46;;;;;;;0.40;0.40;;;18.80;1.00;;;;;;5074363;28;20190;-77
2022/08/25 06:36:13;;;;;;;0.40;0.40;;;19.00;1.00;;;;;;5074639;28;20622;-77
2022/08/25 06:38:38;;;;;;;0.40;0.40;;;19.10;1.00;;;;;;5074679;28;20202;-77
2022/08/25 06:41:07;;;;;;;0.40;0.40;;;19.10;1.00;;;;;;5074041;28;20234;-77
2022/08/25 06:43:33;;;;;;;0.50;0.50;;;19.20;1.00;;;;;;5074441;28;20698;-77
2022/08/25 06:46:10;;;;;;;0.30;0.30;;;19.40;1.00;;;;;;5074328;28;20270;-77
2022/08/25 06:48:36;;;;;;;0.30;0.30;;;20.00;1.00;;;;;;5056238;28;20170;-77
2022/08/25 06:51:10;;;;;;;0.40;0.40;;;20.30;1.00;;;;;;5075131;28;20180;-77
2022/08/25 06:53:36;;;;;;;0.37;0.37;;;20.50;1.00;;;;;;5061215;28;20207;-77
2022/08/25 06:56:02;;;;;;;0.40;0.40;;;20.80;1.00;;;;;;5054136;28;20608;-77
2022/08/25 06:58:28;;;;;;;0.30;0.30;;;20.80;1.00;;;;;;5053942;28;20179;-77
2022/08/25 07:00:54;;;;;;;0.40;0.40;;;21.00;99.90;;;;;;5053372;28;20234;-78
2022/08/25 07:03:20;;;;;;;0.33;0.33;;;21.00;99.90;;;;;;5070488;28;20699;-76
2022/08/25 07:05:53;;;;;;;0.40;0.40;;;21.30;1.70;;;;;;5074100;28;20339;-76
2022/08/25 07:08:19;;;;;;;0.40;0.40;;;21.70;1.00;;;;;;5073583;28;20591;-77
2022/08/25 07:10:45;;;;;;;0.30;0.30;;;22.00;99.90;;;;;;5073397;28;20167;-76
2022/08/25 07:13:11;;;;;;;0.40;0.40;;;22.00;1.00;;;;;;5073682;28;20292;-77
2022/08/25 07:15:41;;;;;;;0.30;0.30;;;21.90;1.00;;;;;;5073718;28;20262;-76
2022/08/25 07:18:07;;;;;;;0.30;0.30;;;22.30;1.00;;;;;;5067512;28;20194;-78
2022/08/25 07:20:34;;;;;;;0.30;0.30;;;23.40;1.00;;;;;;5061884;28;20236;-77
2022/08/25 07:22:59;;;;;;;0.30;0.30;;;24.40;62.90;;;;;;5054413;28;20195;-78
2022/08/25 07:25:25;;;;;;;0.40;0.40;;;24.90;1.00;;;;;;5054381;28;20175;-78
2022/08/25 07:27:50;;;;;;;0.33;0.33;;;25.10;1.00;;;;;;5054458;28;20175;-78
2022/08/25 07:30:17;;;;;;;0.50;0.50;;;25.00;1.00;;;;;;5053580;28;20223;-78
2022/08/25 07:32:42;;;;;;;0.40;0.40;;;25.00;1.00;;;;;;5053001;28;20202;-78
2022/08/25 07:35:14;;;;;;;0.40;0.40;;;25.40;1.00;;;;;;5054582;28;20164;-78
2022/08/25 07:37:41;;;;;;;0.43;0.43;;;25.50;1.00;;;;;;5055236;28;20179;-77
2022/08/25 07:40:08;;;;;;;0.40;0.40;;;25.70;1.00;;;;;;5054143;28;20207;-78
2022/08/25 07:42:34;;;;;;;0.40;0.40;;;25.40;1.00;;;;;;5054219;28;20207;-77
2022/08/25 07:45:01;;;;;;;0.50;0.50;;;25.30;1.00;;;;;;5053758;28;20253;-77
2022/08/25 07:47:26;;;;;;;0.50;0.50;;;25.60;1.00;;;;;;5053382;28;20679;-77
2022/08/25 07:49:52;;;;;;;0.40;0.40;;;26.40;1.00;;;;;;5053917;28;20167;-78
2022/08/25 07:52:18;;;;;;;0.50;0.50;;;26.40;1.00;;;;;;5053314;28;20179;-77
2022/08/25 07:54:43;;;;;;;0.57;0.57;;;26.80;1.00;;;;;;5053768;28;20215;-77
2022/08/25 07:57:09;;;;;;;0.60;0.60;;;26.90;1.00;;;;;;5053603;28;20179;-78
2022/08/25 07:59:39;;;;;;;0.60;0.60;;;27.20;1.00;;;;;;5054189;28;20171;-77
2022/08/25 08:02:04;;;;;;;0.60;0.60;;;27.20;1.00;;;;;;5056934;28;20198;-78
2022/08/25 08:04:30;;;;;;;0.50;0.50;;;27.80;1.00;;;;;;5072557;28;20240;-79
2022/08/25 08:06:55;;;;;;;0.50;0.50;;;27.40;1.00;;;;;;5070064;28;20689;-78
2022/08/25 08:09:21;;;;;;;0.60;0.60;;;27.50;1.00;;;;;;5057017;28;20185;-78
2022/08/25 08:11:46;;;;;;;0.52;0.52;;;27.30;1.00;;;;;;5055119;28;20601;-78
2022/08/25 08:14:12;;;;;;;0.52;0.52;;;27.30;1.00;;;;;;5071715;28;20221;-77
2022/08/25 08:16:38;;;;;;;0.60;0.60;;;27.10;1.00;;;;;;5072356;28;20186;-79
2022/08/25 08:19:04;;;;;;;0.60;0.60;;;27.40;1.00;;;;;;5073252;28;20170;-78
2022/08/25 08:21:33;;;;;;;0.68;0.68;;;26.90;1.00;;;;;;5073819;28;20222;-77
2022/08/25 08:23:59;;;;;;;0.50;0.50;;;26.80;1.00;;;;;;5073607;28;20691;-77
2022/08/25 08:26:27;;;;;;;0.50;0.50;;;26.90;1.00;;;;;;5076941;28;20228;-78
2022/08/25 08:28:52;;;;;;;0.55;0.55;;;27.00;1.00;;;;;;5074735;28;20179;-77
2022/08/25 08:31:23;;;;;;;0.70;0.70;;;27.60;1.00;;;;;;5074075;28;20181;-78
2022/08/25 08:33:50;;;;;;;0.60;0.60;;;28.10;1.00;;;;;;5053965;28;20199;-78
2022/08/25 08:36:17;;;;;;;0.60;0.60;;;28.10;1.00;;;;;;5063640;28;20199;-80
2022/08/25 08:38:43;;;;;;;0.60;0.60;;;27.80;1.00;;;;;;5078290;28;20183;-78
2022/08/25 08:44:14;;;;;;;0.68;0.68;;;28.20;1.00;;;;;;5077510;28;20572;-79
2022/08/25 08:46:55;;;;;;;0.70;0.70;;;27.90;1.00;;;;;;5079325;28;20202;-77
2022/08/25 08:49:39;;;;;;;0.70;0.70;;;27.90;1.00;;;;;;5076504;28;20202;-78
2022/08/25 08:52:08;;;;;;;0.60;0.60;;;28.00;1.00;;;;;;5074488;28;20232;-78
2022/08/25 08:54:37;;;;;;;0.40;0.40;;;28.70;1.00;;;;;;5077500;28;20190;-77
2022/08/25 08:57:16;;;;;;;0.50;0.50;;;28.70;1.00;;;;;;5075342;28;20202;-77
2022/08/25 08:59:52;;;;;;;0.35;0.35;;;28.80;1.00;;;;;;5069803;28;20581;-76
2022/08/25 09:02:27;;;;;;;0.43;0.43;;;28.40;1.00;;;;;;5076620;28;20276;-78
2022/08/25 09:05:05;;;;;;;0.45;0.45;;;28.50;1.00;;;;;;5078288;28;20182;-78
2022/08/25 09:07:38;;;;;;;0.50;0.50;;;29.30;1.00;;;;;;5074786;28;20208;-78
2022/08/25 09:10:04;;;;;;;0.50;0.50;;;29.60;1.00;;;;;;5071884;28;20175;-77
2022/08/25 09:12:43;;;;;;;0.50;0.50;;;29.80;1.00;;;;;;5076614;28;20179;-77
2022/08/25 09:18:49;;;;;;;0.40;0.40;;;29.10;1.00;;;;;;5078022;28;20232;-77
2022/08/25 09:21:48;;;;;;;0.40;0.40;;;29.50;1.00;;;;;;5074745;28;20206;-78
2022/08/25 09:24:46;;;;;;;0.50;0.50;;;29.50;1.00;;;;;;5076491;28;20267;-77
2022/08/25 09:27:53;;;;;;;0.50;0.50;;;29.00;1.00;;;;;;5094746;28;20211;-78
2022/08/25 09:30:20;;;;;;;0.68;0.68;;;29.60;1.00;;;;;;5096946;28;20589;-78
2022/08/25 09:32:50;;;;;;;0.60;0.60;;;30.00;1.00;;;;;;5100669;28;20242;-77
2022/08/25 09:35:25;;;;;;;0.50;0.50;;;30.40;1.00;;;;;;5100016;28;20180;-78
2022/08/25 09:38:06;;;;;;;0.30;0.30;;;30.40;1.00;;;;;;5099252;28;20191;-78
2022/08/25 09:40:36;;;;;;;0.45;0.45;;;29.80;1.00;;;;;;5097575;28;20551;-77
2022/08/25 09:43:16;;;;;;;0.45;0.45;;;30.10;1.00;;;;;;5099821;28;20212;-77
2022/08/25 09:45:47;;;;;;;0.45;0.45;;;29.90;1.00;;;;;;5098936;28;20630;-76
2022/08/25 09:48:27;;;;;;;0.60;0.60;;;29.70;1.00;;;;;;5100540;28;20173;-78
2022/08/25 09:50:58;;;;;;;0.63;0.63;;;29.30;1.00;;;;;;5098305;28;20177;-77
2022/08/25 09:53:24;;;;;;;0.60;0.60;;;29.30;1.00;;;;;;5099515;28;20546;-77
2022/08/25 09:56:03;;;;;;;0.52;0.52;;;29.90;1.00;;;;;;5099085;28;20390;-77
2022/08/25 09:58:29;;;;;;;0.45;0.45;;;29.70;1.00;;;;;;5099416;28;20180;-77
2022/08/25 10:01:03;;;;;;;0.50;0.50;;;29.70;1.00;;;;;;5098355;28;20202;-77
2022/08/25 10:06:10;;;;;;;0.65;0.65;;;30.70;1.00;;;;;;5056173;22;20235;-84
2022/08/25 10:08:43;;;;;;;0.43;0.43;;;30.00;1.00;;;;;;5034050;28;20191;-84
2022/08/25 10:11:13;;;;;;;0.30;0.30;;;29.40;1.00;;;;;;5035811;28;20727;-85
2022/08/25 10:13:49;;;;;;;0.60;0.60;;;29.10;1.00;;;;;;5036709;28;20200;-82
2022/08/25 10:16:27;;;;;;;0.50;0.50;;;29.80;1.00;;;;;;5040843;28;20172;-84
2022/08/25 10:19:13;;;;;;;0.40;0.40;;;30.70;1.00;;;;;;5042513;28;20206;-81
2022/08/25 10:21:41;;;;;;;0.40;0.40;;;30.90;1.00;;;;;;5041615;28;20215;-83
2022/08/25 10:24:09;;;;;;;0.40;0.40;;;30.20;1.00;;;;;;5043962;28;20192;-80
2022/08/25 10:26:53;;;;;;;0.40;0.40;;;30.00;1.00;;;;;;5039929;28;20207;-79
2022/08/25 10:29:40;;;;;;;0.52;0.52;;;31.20;1.00;;;;;;5030694;28;20172;-80
2022/08/25 10:32:16;;;;;;;0.43;0.43;;;31.20;1.00;;;;;;5032336;28;20182;-81
2022/08/25 10:34:48;;;;;;;0.45;0.45;;;31.50;1.00;;;;;;5031709;28;20175;-82
2022/08/25 10:37:20;;;;;;;0.50;0.50;;;30.30;1.00;;;;;;5039303;28;20179;-81
2022/08/25 10:40:10;;;;;;;0.70;0.70;;;29.90;1.00;;;;;;5045176;28;20187;-84
2022/08/25 10:42:57;;;;;;;0.50;0.50;;;30.30;1.00;;;;;;5051884;28;20204;-84
2022/08/25 10:45:44;;;;;;;0.57;0.57;;;30.50;1.00;;;;;;5052922;28;20258;-82
2022/08/25 10:48:38;;;;;;;0.52;0.52;;;29.80;1.00;;;;;;5052402;28;20227;-83
2022/08/25 10:51:12;;;;;;;0.60;0.60;;;30.10;1.00;;;;;;5049912;28;20250;-80
2022/08/25 10:54:06;;;;;;;0.50;0.50;;;30.90;1.00;;;;;;5048641;28;20191;-83
2022/08/25 10:56:40;;;;;;;0.50;0.50;;;31.40;1.00;;;;;;5047857;28;20242;-81
2022/08/25 10:59:11;;;;;;;0.60;0.60;;;31.80;1.00;;;;;;5042550;28;20175;-82
2022/08/25 11:02:02;;;;;;;0.50;0.50;;;31.50;1.00;;;;;;5050551;28;20215;-80
2022/08/25 11:04:45;;;;;;;0.50;0.50;;;31.50;1.00;;;;;;5051351;28;20230;-81
2022/08/25 11:07:25;;;;;;;0.55;0.55;;;32.10;1.00;;;;;;5058218;28;20350;-80
2022/08/25 11:09:56;;;;;;;0.52;0.52;;;31.90;1.00;;;;;;5066316;28;20582;-83
2022/08/25 11:12:36;;;;;;;0.38;0.38;;;32.30;1.00;;;;;;5063724;28;20577;-81
2022/08/25 11:15:15;;;;;;;0.40;0.40;;;31.80;1.00;;;;;;5064728;28;20179;-80
2022/08/25 11:17:53;;;;;;;0.60;0.60;;;31.20;1.00;;;;;;5065369;28;20247;-81
2022/08/25 11:20:27;;;;;;;0.60;0.60;;;30.90;1.00;;;;;;5045883;28;20668;-79
2022/08/25 11:23:12;;;;;;;0.65;0.65;;;31.10;1.00;;;;;;5043713;28;20268;-79
2022/08/25 11:25:42;;;;;;;0.60;0.60;;;31.50;1.00;;;;;;5041880;28;20179;-77
2022/08/25 11:28:31;;;;;;;0.65;0.65;;;31.30;1.00;;;;;;5044817;28;20182;-79
2022/08/25 11:30:59;;;;;;;0.60;0.60;;;31.90;1.00;;;;;;5043908;28;20176;-78
2022/08/25 11:33:28;;;;;;;0.50;0.50;;;30.90;1.00;;;;;;5036660;28;20273;-77
2022/08/25 11:36:08;;;;;;;0.52;0.52;;;31.40;1.00;;;;;;5039091;28;20172;-78
2022/08/25 11:39:04;;;;;;;0.60;0.60;;;31.80;1.00;;;;;;5038722;28;20267;-79
2022/08/25 11:41:38;;;;;;;0.67;0.67;;;31.20;1.00;;;;;;5037876;28;20366;-79
2022/08/25 11:44:41;;;;;;;0.60;0.60;;;30.90;1.00;;;;;;5049279;28;20206;-79
2022/08/25 11:47:19;;;;;;;0.70;0.70;;;31.20;1.00;;;;;;5039983;28;20198;-78
2022/08/25 11:49:58;;;;;;;0.60;0.60;;;31.60;1.00;;;;;;5042213;28;20179;-78
2022/08/25 11:52:47;;;;;;;0.60;0.60;;;31.00;1.00;;;;;;5043236;28;20183;-78
2022/08/25 11:55:25;;;;;;;0.50;0.50;;;30.40;1.00;;;;;;5042021;28;20172;-79
2022/08/25 11:58:25;;;;;;;0.60;0.60;;;30.90;1.00;;;;;;5038889;28;20186;-80
2022/08/25 12:00:51;;;;;;;0.65;0.65;;;32.30;1.00;;;;;;5056661;28;20203;-77
2022/08/25 12:03:35;;;;;;;0.50;0.50;;;31.20;1.00;;;;;;5046199;28;20287;-78
2022/08/25 12:06:26;;;;;;;0.70;0.70;;;31.00;1.00;;;;;;5040495;28;20188;-77
2022/08/25 12:09:04;;;;;;;0.60;0.60;;;31.80;1.00;;;;;;5038568;28;20215;-79
2022/08/25 12:11:48;;;;;;;0.57;0.57;;;32.20;1.00;;;;;;5037131;28;20543;-77
2022/08/25 12:14:23;;;;;;;0.50;0.50;;;32.00;1.00;;;;;;5039032;28;20201;-78
2022/08/25 12:16:54;;;;;;;0.52;0.52;;;31.20;1.00;;;;;;5038678;28;20274;-78
2022/08/25 12:19:46;;;;;;;0.60;0.60;;;31.30;1.00;;;;;;5024664;28;20314;-79
2022/08/25 12:22:12;;;;;;;0.68;0.68;;;31.20;1.00;;;;;;5022473;28;20227;-79
2022/08/25 12:25:01;;;;;;;0.60;0.60;;;31.10;1.00;;;;;;5030079;28;20204;-79
2022/08/25 12:27:39;;;;;;;0.70;0.70;;;30.90;1.00;;;;;;5043168;28;20192;-79
2022/08/25 12:30:14;;;;;;;0.60;0.60;;;30.80;1.00;;;;;;5043476;28;20175;-79
2022/08/25 12:32:51;;;;;;;0.70;0.70;;;31.20;1.00;;;;;;5043838;28;20203;-78
2022/08/25 12:35:37;;;;;;;0.60;0.60;;;31.60;1.00;;;;;;5042280;28;20183;-83
2022/08/25 12:38:14;;;;;;;0.55;0.55;;;31.30;1.00;;;;;;5036316;28;20187;-81
2022/08/25 12:40:42;;;;;;;0.60;0.60;;;31.20;1.00;;;;;;5043801;28;20238;-80
2022/08/25 12:43:25;;;;;;;0.70;0.70;;;30.40;1.00;;;;;;5047466;28;20572;-80
2022/08/25 12:46:24;;;;;;;0.57;0.57;;;30.40;1.00;;;;;;5045750;28;20176;-80
2022/08/25 12:48:55;;;;;;;0.60;0.60;;;30.90;1.00;;;;;;5041196;28;20175;-82
2022/08/25 12:51:45;;;;;;;0.60;0.60;;;30.80;1.00;;;;;;5040794;28;20172;-82
2022/08/25 12:54:28;;;;;;;0.50;0.50;;;31.00;1.00;;;;;;5031474;28;20188;-81
2022/08/25 12:57:02;;;;;;;0.57;0.57;;;31.20;1.00;;;;;;5046755;28;20232;-82
2022/08/25 12:59:38;;;;;;;0.63;0.63;;;31.20;1.00;;;;;;5041834;28;20184;-80
2022/08/25 13:02:38;;;;;;;0.53;0.53;;;30.50;1.00;;;;;;5036241;28;20206;-80
2022/08/25 13:05:04;;;;;;;0.50;0.50;;;31.60;1.00;;;;;;4998349;28;20267;-78
2022/08/25 13:07:48;;;;;;;0.60;0.60;;;31.80;1.00;;;;;;5045449;28;20180;-79
2022/08/25 13:10:38;;;;;;;0.55;0.55;;;32.50;1.00;;;;;;5041093;28;20191;-79
2022/08/25 13:13:12;;;;;;;0.57;0.57;;;32.60;1.00;;;;;;5046462;28;20195;-80
2022/08/25 13:15:43;;;;;;;0.57;0.57;;;32.50;1.00;;;;;;5052345;28;20202;-79
2022/08/25 13:18:23;;;;;;;0.47;0.47;;;32.00;1.00;;;;;;5054425;28;20163;-80
2022/08/25 13:21:00;;;;;;;0.50;0.50;;;31.20;1.00;;;;;;5042778;28;20346;-81
2022/08/25 13:23:27;;;;;;;0.60;0.60;;;30.30;1.00;;;;;;5034507;28;20192;-80
2022/08/25 13:25:55;;;;;;;0.57;0.57;;;30.30;1.00;;;;;;5036407;28;20210;-78
2022/08/25 13:28:28;;;;;;;0.70;0.70;;;30.80;1.00;;;;;;5032659;28;20247;-79